Time;durP1;ratioP1;P1;durP2;ratioP2;P2;SDS_P1;SDS_P2;PMS_P1;PMS_P2;Temp;Humidity;BMP_temperature;BMP_pressure;BME280_temperature;BME280_humidity;BME280_pressure;Samples;Min_cycle;Max_cycle;Signal;HPM_P1;HPM_P2
2022/01/27 00:02:48;;;;;;;;;62.33;45.00;;;;;4.54;73.76;102912.13;5117602;27;45396;-85
2022/01/27 00:05:19;;;;;;;;;59.67;45.33;;;;;4.26;73.38;102856.50;5116389;27;45412;-85
2022/01/27 00:07:58;;;;;;;;;59.33;43.67;;;;;4.58;73.69;102910.69;5098948;27;45505;-85
2022/01/27 00:10:45;;;;;;;;;48.33;29.67;;;;;4.26;73.11;102862.69;5115721;27;47096;-85
2022/01/27 00:13:14;;;;;;;;;57.67;44.33;;;;;4.40;73.96;102903.19;5117837;27;45406;-85
2022/01/27 00:15:44;;;;;;;;;57.67;45.00;;;;;4.08;74.19;102843.75;5099552;27;45546;-85
2022/01/27 00:18:18;;;;;;;;;62.00;45.33;;;;;3.86;73.90;102790.34;5099338;27;45525;-85
2022/01/27 00:20:46;;;;;;;;;58.67;42.00;;;;;4.06;73.95;102795.41;5099161;27;48094;-85
2022/01/27 00:23:12;;;;;;;;;60.67;46.33;;;;;4.03;73.68;102800.44;5098671;27;45835;-85
2022/01/27 00:25:38;;;;;;;;;56.33;47.00;;;;;4.78;73.30;102881.59;5117510;27;45343;-85
2022/01/27 00:28:05;;;;;;;;;55.67;44.33;;;;;4.80;73.27;102884.34;5099090;27;45413;-85
2022/01/27 00:30:34;;;;;;;;;52.33;40.00;;;;;4.42;73.36;102829.72;5116236;27;47446;-85
2022/01/27 00:33:00;;;;;;;;;51.67;38.33;;;;;4.68;73.11;102839.59;5099132;27;45912;-84
2022/01/27 00:35:25;;;;;;;;;57.00;43.00;;;;;4.27;72.35;102756.75;5099046;27;45523;-85
2022/01/27 00:37:50;;;;;;;;;59.33;46.00;;;;;4.21;71.75;102752.78;5099044;27;45458;-85
2022/01/27 00:40:16;;;;;;;;;58.33;45.33;;;;;4.59;72.31;102838.91;5098944;27;48153;-85
2022/01/27 00:42:42;;;;;;;;;56.67;44.33;;;;;4.91;72.65;102879.88;5098756;27;45977;-85
2022/01/27 00:45:08;;;;;;;;;62.00;42.33;;;;;4.18;72.65;102778.78;5116374;27;45397;-85
2022/01/27 00:47:34;;;;;;;;;48.33;38.67;;;;;4.27;73.00;102827.72;5133762;27;45328;-85
2022/01/27 00:49:59;;;;;;;;;53.00;41.00;;;;;4.70;73.16;102879.16;5119211;27;48151;-85
2022/01/27 00:52:35;;;;;;;;;48.67;39.00;;;;;4.58;73.45;102844.94;5119057;27;45492;-85
2022/01/27 00:55:01;;;;;;;;;54.67;42.00;;;;;4.87;73.41;102859.44;5119395;27;45330;-85
2022/01/27 01:00:03;;;;;;;;;64.33;46.00;;;;;4.08;72.26;102711.50;5137434;27;45418;-85
2022/01/27 01:05:46;;;;;;;;;63.33;45.67;;;;;3.98;72.91;102686.25;5137427;27;45435;-85
2022/01/27 01:08:01;;;;;;;;;61.00;47.33;;;;;4.32;72.46;102741.38;5135224;27;45522;-84
2022/01/27 01:15:41;;;;;;;;;64.67;49.00;;;;;3.89;74.38;102731.06;5137647;27;45399;-85
2022/01/27 01:32:06;;;;;;;;;62.67;44.00;;;;;4.04;73.92;102722.56;5056859;28;45453;-85
2022/01/27 01:34:32;;;;;;;;;60.00;44.33;;;;;4.42;74.53;102788.56;5039367;28;45403;-85
2022/01/27 01:37:02;;;;;;;;;60.67;49.00;;;;;4.24;74.66;102781.91;5056561;28;45473;-85
2022/01/27 01:39:34;;;;;;;;;72.33;50.67;;;;;4.46;75.20;102823.91;5056899;28;45299;-85
2022/01/27 01:42:02;;;;;;;;;61.33;45.67;;;;;3.86;76.16;102735.19;5056545;28;45635;-84
2022/01/27 01:44:28;;;;;;;;;64.33;46.00;;;;;4.08;76.31;102772.84;5056784;28;45449;-85
2022/01/27 01:46:54;;;;;;;;;62.00;49.67;;;;;4.37;76.12;102813.56;5046709;28;45464;-85
2022/01/27 01:49:22;;;;;;;;;63.75;45.25;;;;;3.79;76.45;102741.66;5036253;28;45683;-85
2022/01/27 01:51:49;;;;;;;;;60.33;47.00;;;;;3.95;77.00;102770.97;5036212;28;47174;-85
2022/01/27 01:54:15;;;;;;;;;61.33;47.00;;;;;4.23;77.45;102825.66;5036146;28;45566;-85
2022/01/27 01:56:42;;;;;;;;;67.75;50.50;;;;;4.16;77.51;102823.31;5036631;28;45283;-85
2022/01/27 01:59:08;;;;;;;;;61.00;51.00;;;;;3.80;77.77;102781.94;5109238;27;45587;-85
2022/01/27 02:01:35;;;;;;;;;58.25;45.50;;;;;3.81;78.47;102782.06;5121660;27;48006;-85
2022/01/27 02:04:05;;;;;;;;;64.00;47.00;;;;;3.70;78.74;102769.81;5121618;27;45270;-84
2022/01/27 02:06:36;;;;;;;;;60.25;46.50;;;;;3.28;79.27;102726.22;5140786;27;45529;-85
2022/01/27 02:09:13;;;;;;;;;55.00;42.25;;;;;3.76;79.32;102805.34;5121752;27;45388;-84
2022/01/27 02:19:54;;;;;;;;;72.50;54.00;;;;;3.02;79.68;102678.75;5140482;27;45529;-85
2022/01/27 02:22:21;;;;;;;;;65.00;53.75;;;;;3.55;79.62;102777.38;5140337;27;45384;-85
2022/01/27 02:24:47;;;;;;;;;68.75;50.50;;;;;3.90;79.74;102808.16;5121932;27;45260;-85
2022/01/27 02:27:15;;;;;;;;;65.00;49.33;;;;;3.32;79.51;102697.75;5122082;27;45319;-85
2022/01/27 02:29:41;;;;;;;;;67.67;49.00;;;;;3.73;78.64;102746.44;5121944;27;45238;-85
2022/01/27 02:32:07;;;;;;;;;62.67;48.00;;;;;3.69;78.51;102724.28;5121420;27;47211;-86
2022/01/27 02:34:33;;;;;;;;;64.50;46.75;;;;;3.51;78.37;102684.38;5121508;27;45466;-85
2022/01/27 02:36:59;;;;;;;;;65.67;52.00;;;;;3.69;78.44;102729.53;5121693;27;45439;-85
2022/01/27 02:39:24;;;;;;;;;70.00;54.00;;;;;3.01;78.75;102629.72;5121493;27;45400;-84
2022/01/27 02:41:49;;;;;;;;;56.67;44.00;;;;;3.95;79.28;102788.41;5121507;27;48371;-85
2022/01/27 02:44:45;;;;;;;;;64.33;47.67;;;;;3.92;79.27;102782.94;5121381;27;45328;-85
2022/01/27 02:47:12;;;;;;;;;61.00;44.33;;;;;4.09;79.23;102781.63;5120893;27;45490;-85
2022/01/27 02:49:38;;;;;;;;;51.00;41.33;;;;;3.64;77.87;102680.09;5121568;27;45298;-85
2022/01/27 02:52:03;;;;;;;;;59.33;50.00;;;;;3.67;78.11;102697.00;5139866;27;46401;-85
2022/01/27 02:54:28;;;;;;;;;58.33;45.00;;;;;3.78;77.63;102725.00;5121447;27;45319;-85
2022/01/27 02:56:54;;;;;;;;;62.67;47.67;;;;;3.59;77.20;102701.63;5121687;27;45326;-85
2022/01/27 02:59:23;;;;;;;;;68.33;48.67;;;;;3.56;77.89;102696.16;5121469;27;45253;-85
2022/01/27 03:01:50;;;;;;;;;63.00;47.50;;;;;3.34;78.20;102640.16;5139336;27;46475;-84
2022/01/27 03:04:16;;;;;;;;;49.00;39.33;;;;;4.00;78.67;102773.03;5120827;27;45665;-85
2022/01/27 03:06:43;;;;;;;;;60.00;47.33;;;;;3.76;78.13;102725.69;5121087;27;45321;-85
2022/01/27 03:09:09;;;;;;;;;58.00;47.33;;;;;3.74;78.16;102716.75;5120715;27;45436;-85
2022/01/27 03:11:35;;;;;;;;;60.33;46.00;;;;;3.93;78.68;102766.38;5120414;27;47454;-85
2022/01/27 03:14:00;;;;;;;;;50.67;36.33;;;;;3.64;78.46;102725.59;5120585;27;45451;-85
2022/01/27 03:16:26;;;;;;;;;62.33;43.33;;;;;3.24;78.74;102636.78;5120225;27;45314;-85
2022/01/27 03:18:51;;;;;;;;;51.67;40.00;;;;;3.68;78.82;102727.69;5120651;27;45527;-84
2022/01/27 03:21:17;;;;;;;;;48.00;39.00;;;;;3.81;78.76;102744.41;5120794;27;47301;-85
2022/01/27 03:23:42;;;;;;;;;60.67;44.00;;;;;3.46;78.79;102703.16;5139409;27;45357;-85
2022/01/27 03:26:07;;;;;;;;;52.33;42.67;;;;;3.46;79.71;102718.91;5120849;27;45441;-84
2022/01/27 03:28:33;;;;;;;;;55.33;43.00;;;;;3.38;79.40;102703.47;5120854;27;45543;-84
2022/01/27 03:30:58;;;;;;;;;63.67;48.00;;;;;3.48;79.06;102733.09;5120367;27;47495;-84
2022/01/27 03:33:24;;;;;;;;;53.33;42.33;;;;;3.32;79.74;102710.88;5139099;27;45396;-85
2022/01/27 03:35:49;;;;;;;;;50.00;42.00;;;;;3.50;79.68;102715.75;5118865;27;45412;-85
2022/01/27 03:38:14;;;;;;;;;51.67;37.33;;;;;3.49;79.03;102724.41;5117175;27;45631;-84
2022/01/27 03:40:40;;;;;;;;;59.00;42.00;;;;;3.12;78.60;102637.53;5117345;27;46976;-85
2022/01/27 03:43:08;;;;;;;;;57.33;42.67;;;;;3.25;78.69;102656.09;5117108;27;45439;-85
2022/01/27 03:45:34;;;;;;;;;52.67;42.33;;;;;3.86;78.48;102764.06;5098904;27;45381;-85
2022/01/27 03:48:00;;;;;;;;;57.00;42.67;;;;;3.92;79.00;102761.91;5100155;27;45598;-86
2022/01/27 03:50:25;;;;;;;;;58.67;44.00;;;;;3.71;77.89;102716.50;5099778;27;48144;-86
2022/01/27 03:52:51;;;;;;;;;45.33;37.00;;;;;3.43;77.88;102657.53;5117081;27;45749;-85
2022/01/27 03:55:16;;;;;;;;;43.67;34.33;;;;;3.64;78.06;102669.59;5118437;27;45357;-85
2022/01/27 03:57:41;;;;;;;;;65.67;50.67;;;;;3.59;77.56;102692.84;5117205;27;45341;-85
2022/01/27 04:00:08;;;;;;;;;45.33;36.33;;;;;3.49;78.07;102650.91;5116615;27;47120;-85
2022/01/27 04:02:37;;;;;;;;;66.00;48.33;;;;;3.81;77.47;102697.16;5099604;27;45442;-85
2022/01/27 04:05:02;;;;;;;;;66.33;42.67;;;;;3.66;77.39;102676.78;5116968;27;45285;-85
2022/01/27 04:07:27;;;;;;;;;45.00;35.00;;;;;3.70;77.26;102681.47;5118131;27;45228;-85
2022/01/27 04:09:53;;;;;;;;;57.67;42.67;;;;;3.82;76.76;102701.59;5116820;27;47511;-85
2022/01/27 04:12:18;;;;;;;;;52.00;43.67;;;;;3.53;77.15;102680.16;5116899;27;45506;-85
2022/01/27 04:14:44;;;;;;;;;61.67;46.33;;;;;3.25;78.01;102637.72;5116557;27;45546;-85
2022/01/27 04:17:09;;;;;;;;;53.67;43.00;;;;;3.56;78.02;102679.50;5116636;27;45580;-85
2022/01/27 04:19:35;;;;;;;;;49.33;39.00;;;;;3.72;77.80;102713.09;5099193;27;47208;-85
2022/01/27 04:22:00;;;;;;;;;42.67;33.00;;;;;3.36;77.46;102639.47;5099329;27;45203;-85
2022/01/27 04:24:26;;;;;;;;;44.67;34.67;;;;;3.46;77.84;102650.69;5099203;27;45557;-85
2022/01/27 04:26:59;;;;;;;;;44.00;37.00;;;;;3.34;77.82;102656.78;5116737;27;45503;-85
2022/01/27 04:29:25;;;;;;;;;48.00;40.00;;;;;3.45;78.25;102686.50;5117626;27;46215;-86
2022/01/27 04:31:51;;;;;;;;;49.33;37.00;;;;;3.61;77.82;102717.50;5116528;27;45418;-85
2022/01/27 04:34:17;;;;;;;;;49.00;33.33;;;;;3.31;77.65;102632.94;5099230;27;45430;-85
2022/01/27 04:36:44;;;;;;;;;60.00;44.33;;;;;3.14;77.46;102607.13;5099265;27;45577;-84
2022/01/27 04:41:43;;;;;;;;;57.67;44.00;;;;;4.03;77.83;102761.03;5117267;27;45473;-85
2022/01/27 04:47:03;;;;;;;;;46.67;36.00;;;;;3.26;77.49;102640.47;5117607;27;45619;-85
2022/01/27 04:49:28;;;;;;;;;49.00;38.00;;;;;3.23;77.80;102681.25;5098900;27;47380;-85
2022/01/27 04:51:54;;;;;;;;;52.33;43.00;;;;;3.35;78.36;102702.34;5116160;27;45670;-85
2022/01/27 04:56:44;;;;;;;;;58.67;44.33;;;;;3.04;78.45;102640.47;5116932;27;45527;-85
2022/01/27 04:59:17;;;;;;;;;54.33;39.00;;;;;2.61;78.86;102560.09;5115750;27;46935;-85
2022/01/27 05:01:53;;;;;;;;;32.33;26.00;;;;;3.04;78.74;102650.94;5115571;27;45729;-85
2022/01/27 05:04:21;;;;;;;;;41.00;31.00;;;;;3.53;78.97;102727.41;5115969;27;45447;-85
2022/01/27 05:06:51;;;;;;;;;60.00;44.00;;;;;3.17;78.75;102693.91;5116037;27;45252;-85
2022/01/27 05:09:17;;;;;;;;;45.67;41.67;;;;;3.12;79.64;102669.00;5116854;27;46079;-85
2022/01/27 05:11:50;;;;;;;;;33.00;30.00;;;;;2.61;79.31;102581.06;5115509;27;45503;-85
2022/01/27 05:14:26;;;;;;;;;44.33;39.00;;;;;2.83;79.40;102641.38;5098827;27;45323;-85
2022/01/27 05:16:53;;;;;;;;;26.67;26.67;;;;;2.94;80.15;102669.38;5098716;27;45540;-85
2022/01/27 05:19:19;;;;;;;;;45.67;39.67;;;;;2.95;79.68;102649.28;5098358;27;47463;-85
2022/01/27 05:21:44;;;;;;;;;49.33;38.67;;;;;3.30;79.53;102703.66;5098404;27;45339;-85
2022/01/27 05:24:11;;;;;;;;;53.67;43.67;;;;;3.11;79.30;102657.59;5098415;27;45539;-85
2022/01/27 05:26:38;;;;;;;;;49.33;41.67;;;;;3.38;79.57;102721.84;5098367;27;45437;-85
2022/01/27 05:29:05;;;;;;;;;44.67;36.00;;;;;3.01;80.01;102650.72;5098391;27;47296;-85
2022/01/27 05:31:31;;;;;;;;;39.67;29.33;;;;;2.86;79.18;102645.13;5097925;27;45398;-84
2022/01/27 05:33:56;;;;;;;;;45.33;37.67;;;;;3.30;79.46;102724.66;5116959;27;45406;-85
2022/01/27 05:36:22;;;;;;;;;27.33;22.67;;;;;3.13;79.26;102707.56;5098292;27;45428;-85
2022/01/27 05:38:48;;;;;;;;;24.00;19.33;;;;;3.50;79.41;102749.84;5115361;27;47200;-85
2022/01/27 05:41:14;;;;;;;;;54.00;42.33;;;;;2.84;79.81;102630.06;5118713;27;46221;-85
2022/01/27 05:43:40;;;;;;;;;46.67;40.33;;;;;3.14;79.65;102693.66;5118806;27;45466;-84
2022/01/27 05:46:05;;;;;;;;;48.00;41.67;;;;;3.03;79.50;102659.59;5118439;27;45389;-85
2022/01/27 05:48:31;;;;;;;;;55.67;41.67;;;;;3.17;79.69;102670.28;5118545;27;47022;-85
2022/01/27 05:50:57;;;;;;;;;49.33;40.33;;;;;3.00;79.32;102624.38;5118787;27;45797;-85
2022/01/27 05:53:23;;;;;;;;;31.00;27.00;;;;;2.99;79.18;102633.91;5118849;27;45369;-86
2022/01/27 05:55:49;;;;;;;;;52.33;43.67;;;;;3.54;79.28;102728.31;5118562;27;45454;-85
2022/01/27 05:58:14;;;;;;;;;47.00;39.67;;;;;3.40;79.21;102693.09;5118613;27;47063;-86
2022/01/27 06:00:40;;;;;;;;;40.00;35.33;;;;;2.75;78.91;102573.50;5118197;27;45373;-85
2022/01/27 06:03:05;;;;;;;;;43.33;24.33;;;;;3.35;79.01;102666.50;5118543;27;45381;-85
2022/01/27 06:05:31;;;;;;;;;53.00;39.33;;;;;3.59;79.28;102737.47;5118328;27;45572;-85
2022/01/27 06:07:56;;;;;;;;;44.67;39.67;;;;;2.87;79.62;102606.72;5118467;27;47449;-85
2022/01/27 06:10:22;;;;;;;;;54.67;43.00;;;;;2.94;79.73;102642.22;5120751;27;45427;-85
2022/01/27 06:12:52;;;;;;;;;46.33;30.00;;;;;3.56;79.02;102732.00;5121985;27;45393;-85
2022/01/27 06:15:19;;;;;;;;;23.67;23.67;;;;;3.11;79.11;102649.75;5122222;27;45496;-85
2022/01/27 06:17:44;;;;;;;;;47.00;40.67;;;;;3.70;78.81;102736.63;5121774;27;47731;-85
2022/01/27 06:20:11;;;;;;;;;37.67;29.33;;;;;3.69;79.01;102749.63;5121778;27;45266;-85
2022/01/27 06:22:37;;;;;;;;;44.67;36.67;;;;;3.56;78.48;102737.25;5121639;27;45371;-85
2022/01/27 06:25:03;;;;;;;;;47.33;39.00;;;;;3.34;79.01;102687.38;5122548;27;45505;-85
2022/01/27 06:27:28;;;;;;;;;44.67;36.67;;;;;3.34;78.47;102683.03;5122921;27;48258;-85
2022/01/27 06:29:54;;;;;;;;;60.33;40.00;;;;;3.09;78.31;102614.59;5121395;27;45362;-85
2022/01/27 06:32:19;;;;;;;;;44.33;34.00;;;;;3.25;78.66;102669.22;5121446;27;45850;-85
2022/01/27 06:34:45;;;;;;;;;46.00;42.00;;;;;3.28;78.84;102702.59;5121502;27;45286;-85
2022/01/27 06:37:10;;;;;;;;;55.00;42.67;;;;;3.23;79.04;102710.13;5121335;27;48531;-84
2022/01/27 06:39:35;;;;;;;;;50.33;36.00;;;;;2.83;79.64;102647.50;5120884;27;45513;-84
2022/01/27 06:42:01;;;;;;;;;50.00;38.33;;;;;3.07;80.13;102697.50;5121346;27;45432;-84
2022/01/27 06:44:27;;;;;;;;;48.00;40.67;;;;;3.29;79.87;102725.44;5121264;27;45505;-84
2022/01/27 06:46:52;;;;;;;;;41.33;35.00;;;;;3.55;79.68;102743.28;5121155;27;46925;-85
2022/01/27 06:49:17;;;;;;;;;54.00;42.67;;;;;3.45;79.21;102733.75;5121624;27;45298;-85
2022/01/27 06:51:46;;;;;;;;;37.67;27.67;;;;;2.97;79.21;102627.66;5120547;27;45336;-84
2022/01/27 06:54:12;;;;;;;;;43.33;39.33;;;;;3.16;79.03;102676.31;5121386;27;45416;-85
2022/01/27 06:56:39;;;;;;;;;63.00;44.00;;;;;3.37;79.46;102714.75;5120965;27;47909;-84
2022/01/27 06:59:05;;;;;;;;;44.67;39.67;;;;;2.83;79.55;102634.41;5120999;27;45497;-85
2022/01/27 07:01:30;;;;;;;;;41.67;36.67;;;;;2.74;79.09;102582.16;5120902;27;45504;-85
2022/01/27 07:03:56;;;;;;;;;37.33;35.00;;;;;3.29;79.21;102687.03;5121070;27;45292;-85
2022/01/27 07:06:21;;;;;;;;;45.00;37.67;;;;;3.30;79.09;102695.78;5120771;27;46940;-85
2022/01/27 07:08:47;;;;;;;;;49.33;38.00;;;;;3.40;78.75;102694.03;5137777;27;45398;-85
2022/01/27 07:11:12;;;;;;;;;44.67;39.67;;;;;3.86;78.75;102774.56;5139854;27;45657;-85
2022/01/27 07:13:40;;;;;;;;;45.67;38.00;;;;;2.92;78.35;102602.75;5120972;27;45324;-85
2022/01/27 07:16:09;;;;;;;;;41.00;36.67;;;;;3.58;78.99;102714.63;5120506;27;48127;-85
2022/01/27 07:18:36;;;;;;;;;49.00;38.00;;;;;3.63;79.11;102715.94;5120428;27;45498;-84
2022/01/27 07:21:02;;;;;;;;;44.00;36.33;;;;;3.41;78.60;102682.72;5139645;27;45434;-85
2022/01/27 07:23:27;;;;;;;;;50.33;42.33;;;;;3.38;78.11;102690.34;5120347;27;45746;-85
2022/01/27 07:25:52;;;;;;;;;49.33;34.67;;;;;3.13;78.35;102634.13;5120554;27;47103;-84
2022/01/27 07:28:18;;;;;;;;;63.33;47.33;;;;;3.41;78.35;102693.22;5120382;27;45814;-85
2022/01/27 07:30:43;;;;;;;;;54.33;41.33;;;;;3.65;78.28;102716.94;5121469;27;45571;-85
2022/01/27 07:33:08;;;;;;;;;57.33;45.00;;;;;3.71;78.15;102721.75;5120765;27;45441;-83
2022/01/27 07:35:34;;;;;;;;;55.33;39.67;;;;;3.46;78.58;102671.66;5122654;27;47424;-93
2022/01/27 07:37:59;;;;;;;;;45.67;32.00;;;;;3.52;77.93;102649.47;5125976;27;45345;-94
2022/01/27 07:40:25;;;;;;;;;52.67;44.33;;;;;3.89;77.44;102706.53;5127912;27;45184;-93
2022/01/27 07:42:50;;;;;;;;;50.67;40.33;;;;;3.49;77.08;102633.47;5126703;27;45628;-93
2022/01/27 07:45:16;;;;;;;;;44.67;37.33;;;;;3.28;76.81;102593.38;5128063;27;47557;-93
2022/01/27 07:47:41;;;;;;;;;49.33;42.67;;;;;3.70;76.53;102660.47;5128437;27;45270;-94
2022/01/27 07:50:07;;;;;;;;;47.33;39.00;;;;;3.67;76.31;102659.31;5130010;27;45207;-93
2022/01/27 07:52:32;;;;;;;;;48.67;41.67;;;;;3.52;76.16;102611.81;5127467;27;45219;-93
2022/01/27 07:54:58;;;;;;;;;59.33;46.67;;;;;3.51;76.12;102633.59;5128332;27;46953;-93
2022/01/27 07:57:23;;;;;;;;;60.00;46.00;;;;;3.63;76.63;102644.13;5124592;27;45265;-94
2022/01/27 07:59:49;;;;;;;;;47.33;40.67;;;;;4.01;76.47;102720.63;5123001;27;45268;-94
2022/01/27 08:02:14;;;;;;;;;47.67;39.33;;;;;4.01;76.82;102702.25;5122994;27;45541;-94
2022/01/27 08:04:48;;;;;;;;;59.33;43.33;;;;;3.17;76.32;102573.25;5119231;27;46104;-92
2022/01/27 08:07:16;;;;;;;;;54.00;44.00;;;;;3.72;76.19;102663.22;5118744;27;45382;-90
2022/01/27 08:09:44;;;;;;;;;60.00;43.33;;;;;4.22;76.09;102757.19;5118927;27;45323;-92
2022/01/27 08:12:12;;;;;;;;;47.33;40.33;;;;;2.69;76.49;102488.25;5111586;27;45254;-89
2022/01/27 08:14:38;;;;;;;;;52.33;42.00;;;;;3.69;76.48;102656.03;5114940;27;47735;-91
2022/01/27 08:17:06;;;;;;;;;48.33;39.33;;;;;3.48;76.26;102618.53;5121903;27;45557;-92
2022/01/27 08:19:34;;;;;;;;;56.00;42.33;;;;;3.81;76.90;102700.66;5120239;27;45438;-92
2022/01/27 08:22:02;;;;;;;;;52.00;43.33;;;;;3.89;76.84;102709.16;5114170;27;45558;-89
2022/01/27 08:24:29;;;;;;;;;51.33;42.33;;;;;3.89;76.74;102724.91;5113973;27;48268;-91
2022/01/27 08:27:02;;;;;;;;;52.00;43.67;;;;;4.19;76.40;102773.69;5122877;27;45459;-87
2022/01/27 08:29:42;;;;;;;;;57.33;45.33;;;;;3.69;76.98;102677.03;5102779;27;45357;-89
2022/01/27 08:32:10;;;;;;;;;37.67;29.33;;;;;4.28;76.16;102779.63;5130787;27;45447;-90
2022/01/27 08:34:39;;;;;;;;;58.67;48.67;;;;;3.85;76.44;102688.72;5109992;27;47005;-87
2022/01/27 08:37:17;;;;;;;;;44.33;35.33;;;;;2.95;76.56;102558.44;5118580;27;45527;-88
2022/01/27 08:39:43;;;;;;;;;58.67;44.00;;;;;4.23;76.70;102772.19;5113651;27;45405;-88
2022/01/27 08:42:08;;;;;;;;;64.00;50.00;;;;;3.60;77.84;102734.97;5114750;27;45346;-89
2022/01/27 08:44:37;;;;;;;;;58.33;44.33;;;;;3.38;77.74;102660.59;5112804;27;47846;-89
2022/01/27 08:47:03;;;;;;;;;48.33;40.33;;;;;3.76;77.85;102730.94;5115373;27;45347;-85
2022/01/27 08:49:30;;;;;;;;;46.33;35.33;;;;;3.73;77.72;102721.09;5137165;27;45453;-90
2022/01/27 08:51:59;;;;;;;;;61.00;44.33;;;;;3.80;77.47;102730.38;5117772;27;45491;-93
2022/01/27 08:54:27;;;;;;;;;47.33;41.00;;;;;3.36;77.84;102664.78;5105125;27;48265;-89
2022/01/27 08:56:53;;;;;;;;;55.00;43.33;;;;;3.95;77.48;102746.38;5110532;27;45472;-85
2022/01/27 08:59:22;;;;;;;;;53.25;45.25;;;;;3.81;77.04;102729.56;5134515;27;45406;-86
2022/01/27 09:01:51;;;;;;;;;60.67;45.00;;;;;3.24;77.60;102638.50;5103369;27;45524;-87
2022/01/27 09:04:16;;;;;;;;;42.33;37.33;;;;;3.00;77.81;102592.91;5120503;27;45817;-82
2022/01/27 09:06:42;;;;;;;;;53.00;44.67;;;;;3.90;77.55;102721.50;5116777;27;45433;-82
2022/01/27 09:09:07;;;;;;;;;50.00;41.67;;;;;3.81;77.44;102694.53;5116599;27;45536;-83
2022/01/27 09:11:33;;;;;;;;;43.33;38.33;;;;;3.26;77.16;102611.63;5107339;27;45559;-87
2022/01/27 09:14:04;;;;;;;;;62.33;47.67;;;;;4.04;77.53;102752.38;5122714;27;45773;-86
2022/01/27 09:16:31;;;;;;;;;43.67;39.33;;;;;3.98;78.00;102774.63;5102072;27;45676;-88
2022/01/27 09:18:59;;;;;;;;;54.00;41.33;;;;;3.23;78.38;102634.03;5109326;27;45405;-89
2022/01/27 09:21:32;;;;;;;;;47.50;37.00;;;;;3.12;78.32;102621.78;5106307;27;45503;-85
2022/01/27 09:23:57;;;;;;;;;52.00;40.33;;;;;3.84;78.12;102740.31;5098662;27;47531;-88
2022/01/27 09:26:42;;;;;;;;;62.33;48.00;;;;;3.06;78.17;102599.53;5108689;27;45477;-87
2022/01/27 09:29:23;;;;;;;;;59.00;43.00;;;;;2.79;78.13;102519.63;5108046;27;45458;-88
2022/01/27 09:31:49;;;;;;;;;55.33;44.33;;;;;4.11;77.62;102720.53;5119148;27;45368;-91
2022/01/27 09:34:19;;;;;;;;;58.00;44.00;;;;;4.00;77.28;102699.50;5101384;27;47195;-91
2022/01/27 09:36:46;;;;;;;;;49.67;38.67;;;;;3.70;77.30;102660.47;5106824;27;45490;-92
2022/01/27 09:39:13;;;;;;;;;56.67;41.00;;;;;3.57;77.02;102619.25;5109082;27;45503;-88
2022/01/27 09:41:40;;;;;;;;;57.33;43.67;;;;;2.90;76.49;102473.28;5104017;27;45715;-88
2022/01/27 09:44:10;;;;;;;;;50.33;40.33;;;;;3.94;76.09;102645.69;5104124;27;47212;-84
2022/01/27 09:46:35;;;;;;;;;59.33;43.33;;;;;4.08;76.20;102645.84;5119879;27;45939;-84
2022/01/27 09:49:10;;;;;;;;;63.00;47.25;;;;;4.48;76.18;102725.03;5111875;27;45561;-85
2022/01/27 09:51:41;;;;;;;;;48.00;41.00;;;;;4.16;75.71;102660.44;5102028;27;45509;-85
2022/01/27 09:54:08;;;;;;;;;52.33;42.33;;;;;4.77;75.08;102735.13;5100076;27;48154;-85
2022/01/27 09:56:36;;;;;;;;;57.33;44.00;;;;;4.57;75.17;102691.56;5102990;27;45626;-90
2022/01/27 09:59:04;;;;;;;;;47.00;41.33;;;;;4.53;74.80;102683.31;5103015;27;46037;-90
2022/01/27 10:01:29;;;;;;;;;45.33;40.33;;;;;4.25;74.81;102645.38;5104078;27;45490;-89
2022/01/27 10:03:57;;;;;;;;;53.33;43.00;;;;;4.14;74.67;102603.38;5112914;27;48223;-88
2022/01/27 10:06:28;;;;;;;;;47.00;38.00;;;;;3.99;74.65;102553.22;5113878;27;45593;-92
2022/01/27 10:09:25;;;;;;;;;46.33;39.00;;;;;3.98;73.84;102527.75;5113310;27;45323;-83
2022/01/27 10:11:51;;;;;;;;;57.67;44.67;;;;;4.40;73.92;102616.72;5122613;27;45676;-86
2022/01/27 10:14:36;;;;;;;;;46.67;39.00;;;;;4.64;74.46;102688.59;5110934;27;47957;-88
2022/01/27 10:17:12;;;;;;;;;49.33;39.67;;;;;4.91;75.11;102740.47;5118181;27;45438;-86
2022/01/27 10:19:41;;;;;;;;;57.33;41.67;;;;;4.90;74.27;102717.63;5095002;27;45586;-88
2022/01/27 10:22:11;;;;;;;;;54.33;45.33;;;;;4.45;74.38;102627.56;5097458;27;45336;-91
2022/01/27 10:24:36;;;;;;;;;50.00;38.33;;;;;4.61;74.26;102659.47;5110181;27;47934;-85
2022/01/27 10:27:22;;;;;;;;;53.00;43.33;;;;;4.70;75.13;102675.00;5120909;27;45503;-90
2022/01/27 10:32:55;;;;;;;;;50.67;42.67;;;;;4.77;74.28;102693.03;5125339;27;45368;-86
2022/01/27 10:35:25;;;;;;;;;55.67;38.67;;;;;4.88;74.49;102721.84;5104967;27;47268;-83
2022/01/27 10:38:12;;;;;;;;;54.00;41.33;;;;;5.06;75.13;102767.91;5097107;27;45949;-82
2022/01/27 10:40:43;;;;;;;;;58.00;44.00;;;;;5.04;74.87;102732.69;5110434;27;45932;-83
2022/01/27 10:43:23;;;;;;;;;36.00;32.67;;;;;5.03;75.45;102746.66;5111287;27;45507;-82
2022/01/27 10:46:28;;;;;;;;;63.00;49.33;;;;;5.00;75.24;102741.16;5102973;27;48501;-79
2022/01/27 10:49:09;;;;;;;;;64.00;47.67;;;;;5.00;75.19;102720.13;5035282;28;45539;-83
2022/01/27 10:51:50;;;;;;;;;42.00;36.67;;;;;4.30;75.33;102595.81;5035224;28;45779;-83
2022/01/27 10:54:27;;;;;;;;;59.33;45.33;;;;;5.08;74.95;102718.97;5037772;28;45887;-81
2022/01/27 10:56:53;;;;;;;;;57.00;45.33;;;;;5.23;74.78;102734.97;5035341;28;45717;-82
2022/01/27 10:59:20;;;;;;;;;52.00;43.00;;;;;5.34;74.43;102733.09;5039315;28;45574;-82
2022/01/27 11:01:50;;;;;;;;;55.67;36.67;;;;;5.24;74.38;102730.59;5033859;28;45492;-84
2022/01/27 11:04:17;;;;;;;;;60.67;41.00;;;;;5.13;74.82;102701.81;5040852;28;45567;-81
2022/01/27 11:07:01;;;;;;;;;28.00;24.00;;;;;5.37;74.30;102728.03;5039529;28;46274;-82
2022/01/27 11:09:28;;;;;;;;;59.00;46.33;;;;;4.76;74.25;102646.50;5040754;28;45605;-80
2022/01/27 11:11:56;;;;;;;;;52.00;42.00;;;;;5.05;74.98;102688.88;5033693;28;46001;-78
2022/01/27 11:14:25;;;;;;;;;45.33;40.67;;;;;4.85;74.91;102656.78;5039677;28;45478;-78
2022/01/27 11:16:54;;;;;;;;;41.33;39.00;;;;;4.87;74.73;102659.53;5038124;28;45931;-78
2022/01/27 11:21:50;;;;;;;;;40.67;30.33;;;;;5.40;74.97;102732.63;5035285;27;45693;-78
2022/01/27 11:24:25;;;;;;;;;57.33;42.67;;;;;5.27;74.85;102697.53;5115561;27;45492;-78
2022/01/27 11:27:06;;;;;;;;;51.67;42.00;;;;;4.84;74.10;102598.81;5111809;27;46604;-78
2022/01/27 11:29:43;;;;;;;;;52.67;39.00;;;;;5.42;74.38;102721.41;5111237;27;45468;-78
2022/01/27 11:32:26;;;;;;;;;57.00;41.33;;;;;5.49;74.57;102723.66;5099022;27;46182;-77
2022/01/27 11:34:53;;;;;;;;;47.00;38.33;;;;;5.48;74.04;102700.81;5121339;27;45566;-78
2022/01/27 11:37:36;;;;;;;;;54.67;42.67;;;;;5.52;73.95;102699.28;5118059;27;45437;-79
2022/01/27 11:40:08;;;;;;;;;52.33;42.33;;;;;5.28;74.02;102654.59;5116473;27;46032;-80
2022/01/27 11:42:41;;;;;;;;;36.67;34.33;;;;;5.54;74.15;102707.28;5115705;27;45463;-78
2022/01/27 11:45:22;;;;;;;;;46.33;40.00;;;;;5.50;74.07;102707.06;5117562;27;45460;-84
2022/01/27 11:48:07;;;;;;;;;48.33;37.67;;;;;5.11;74.43;102641.97;5097169;27;46044;-82
2022/01/27 11:50:51;;;;;;;;;61.33;49.33;;;;;4.73;75.01;102591.06;5122706;27;45400;-83
2022/01/27 11:53:35;;;;;;;;;62.33;45.67;;;;;5.39;75.12;102683.44;5107423;27;45573;-80
2022/01/27 11:56:06;;;;;;;;;44.00;38.33;;;;;5.32;74.65;102653.13;5114232;27;45692;-85
2022/01/27 11:58:43;;;;;;;;;61.00;47.33;;;;;5.19;74.71;102626.72;5119156;27;47961;-87
2022/01/27 12:01:14;;;;;;;;;44.67;35.33;;;;;5.23;74.83;102626.13;5109721;27;45905;-88
2022/01/27 12:04:00;;;;;;;;;51.67;39.00;;;;;5.22;74.53;102637.47;5122967;27;45563;-84
2022/01/27 12:06:25;;;;;;;;;43.00;37.67;;;;;5.49;75.36;102694.69;5119449;27;45464;-87
2022/01/27 12:08:51;;;;;;;;;45.33;35.67;;;;;4.85;75.05;102574.34;5106093;27;47665;-90
2022/01/27 12:11:49;;;;;;;;;46.33;39.67;;;;;5.67;74.54;102674.03;5106375;27;45943;-84